sensor_id;sensor_type;location;lat;lon;timestamp;P1;durP1;ratioP1;P2;durP2;ratioP2
78228;SDS011;74448;49.082;9.152;2024-01-11T00:00:36;23.83;;;9.40;;
78228;SDS011;74448;49.082;9.152;2024-01-11T00:03:02;17.55;;;9.95;;
78228;SDS011;74448;49.082;9.152;2024-01-11T00:05:29;23.05;;;9.40;;
78228;SDS011;74448;49.082;9.152;2024-01-11T00:07:56;25.33;;;9.48;;
78228;SDS011;74448;49.082;9.152;2024-01-11T00:10:23;21.60;;;8.82;;
78228;SDS011;74448;49.082;9.152;2024-01-11T00:12:50;19.25;;;9.40;;
78228;SDS011;74448;49.082;9.152;2024-01-11T00:17:44;20.65;;;9.43;;
78228;SDS011;74448;49.082;9.152;2024-01-11T00:20:11;22.35;;;9.25;;
78228;SDS011;74448;49.082;9.152;2024-01-11T00:22:38;23.13;;;10.75;;
78228;SDS011;74448;49.082;9.152;2024-01-11T00:25:04;19.58;;;9.85;;
78228;SDS011;74448;49.082;9.152;2024-01-11T00:27:31;19.60;;;9.40;;
78228;SDS011;74448;49.082;9.152;2024-01-11T00:29:57;18.67;;;8.38;;
78228;SDS011;74448;49.082;9.152;2024-01-11T00:32:25;19.42;;;9.20;;
78228;SDS011;74448;49.082;9.152;2024-01-11T00:34:52;23.13;;;10.57;;
78228;SDS011;74448;49.082;9.152;2024-01-11T00:37:19;19.27;;;9.40;;
78228;SDS011;74448;49.082;9.152;2024-01-11T00:39:45;25.80;;;10.63;;
78228;SDS011;74448;49.082;9.152;2024-01-11T00:42:12;19.85;;;10.52;;
78228;SDS011;74448;49.082;9.152;2024-01-11T00:44:39;22.52;;;9.75;;
78228;SDS011;74448;49.082;9.152;2024-01-11T00:47:05;22.45;;;10.27;;
78228;SDS011;74448;49.082;9.152;2024-01-11T00:49:32;22.95;;;10.27;;
78228;SDS011;74448;49.082;9.152;2024-01-11T00:51:59;21.80;;;10.60;;
78228;SDS011;74448;49.082;9.152;2024-01-11T00:54:25;21.92;;;9.63;;
78228;SDS011;74448;49.082;9.152;2024-01-11T00:56:52;20.10;;;9.60;;
78228;SDS011;74448;49.082;9.152;2024-01-11T00:59:18;18.90;;;9.82;;
78228;SDS011;74448;49.082;9.152;2024-01-11T01:01:48;23.75;;;10.43;;
78228;SDS011;74448;49.082;9.152;2024-01-11T01:04:15;21.63;;;9.80;;
78228;SDS011;74448;49.082;9.152;2024-01-11T01:06:42;24.35;;;10.38;;
78228;SDS011;74448;49.082;9.152;2024-01-11T01:09:09;19.98;;;9.88;;
78228;SDS011;74448;49.082;9.152;2024-01-11T01:11:36;19.67;;;9.38;;
78228;SDS011;74448;49.082;9.152;2024-01-11T01:14:02;21.30;;;11.57;;
78228;SDS011;74448;49.082;9.152;2024-01-11T01:16:29;21.20;;;9.23;;
78228;SDS011;74448;49.082;9.152;2024-01-11T01:21:23;21.83;;;9.98;;
78228;SDS011;74448;49.082;9.152;2024-01-11T01:23:50;16.70;;;9.05;;
78228;SDS011;74448;49.082;9.152;2024-01-11T01:26:16;22.73;;;10.57;;
78228;SDS011;74448;49.082;9.152;2024-01-11T01:28:43;17.42;;;9.43;;
78228;SDS011;74448;49.082;9.152;2024-01-11T01:31:10;20.35;;;11.13;;
78228;SDS011;74448;49.082;9.152;2024-01-11T01:33:36;23.00;;;9.82;;
78228;SDS011;74448;49.082;9.152;2024-01-11T01:36:03;18.52;;;9.85;;
78228;SDS011;74448;49.082;9.152;2024-01-11T01:38:30;21.05;;;8.60;;
78228;SDS011;74448;49.082;9.152;2024-01-11T01:40:57;23.77;;;10.05;;
78228;SDS011;74448;49.082;9.152;2024-01-11T01:43:24;19.55;;;8.90;;
78228;SDS011;74448;49.082;9.152;2024-01-11T01:45:51;20.77;;;10.85;;
78228;SDS011;74448;49.082;9.152;2024-01-11T01:48:18;19.27;;;10.13;;
78228;SDS011;74448;49.082;9.152;2024-01-11T01:50:46;17.58;;;9.55;;
78228;SDS011;74448;49.082;9.152;2024-01-11T01:53:18;21.23;;;9.23;;
78228;SDS011;74448;49.082;9.152;2024-01-11T01:55:48;24.98;;;10.23;;
78228;SDS011;74448;49.082;9.152;2024-01-11T01:58:17;22.55;;;10.40;;
78228;SDS011;74448;49.082;9.152;2024-01-11T02:00:45;20.13;;;9.90;;
78228;SDS011;74448;49.082;9.152;2024-01-11T02:03:15;16.90;;;9.07;;
78228;SDS011;74448;49.082;9.152;2024-01-11T02:05:42;18.88;;;8.50;;
78228;SDS011;74448;49.082;9.152;2024-01-11T02:10:38;18.42;;;9.02;;
78228;SDS011;74448;49.082;9.152;2024-01-11T02:13:05;19.80;;;9.27;;
78228;SDS011;74448;49.082;9.152;2024-01-11T02:15:36;21.23;;;10.68;;
78228;SDS011;74448;49.082;9.152;2024-01-11T02:18:03;22.10;;;11.57;;
78228;SDS011;74448;49.082;9.152;2024-01-11T02:20:29;20.40;;;11.15;;
78228;SDS011;74448;49.082;9.152;2024-01-11T02:23:01;20.08;;;9.80;;
78228;SDS011;74448;49.082;9.152;2024-01-11T02:25:32;21.95;;;9.60;;
78228;SDS011;74448;49.082;9.152;2024-01-11T02:27:58;23.45;;;9.68;;
78228;SDS011;74448;49.082;9.152;2024-01-11T02:30:25;17.33;;;8.65;;
78228;SDS011;74448;49.082;9.152;2024-01-11T02:32:52;16.92;;;9.77;;
78228;SDS011;74448;49.082;9.152;2024-01-11T02:35:19;20.50;;;9.27;;
78228;SDS011;74448;49.082;9.152;2024-01-11T02:37:46;19.15;;;8.88;;
78228;SDS011;74448;49.082;9.152;2024-01-11T02:40:13;20.80;;;9.75;;
78228;SDS011;74448;49.082;9.152;2024-01-11T02:42:41;21.23;;;9.32;;
78228;SDS011;74448;49.082;9.152;2024-01-11T02:45:07;16.70;;;8.85;;
78228;SDS011;74448;49.082;9.152;2024-01-11T02:47:36;20.27;;;10.85;;
78228;SDS011;74448;49.082;9.152;2024-01-11T02:50:03;22.45;;;10.85;;
78228;SDS011;74448;49.082;9.152;2024-01-11T02:52:30;21.20;;;8.85;;
78228;SDS011;74448;49.082;9.152;2024-01-11T02:54:57;20.35;;;8.90;;
78228;SDS011;74448;49.082;9.152;2024-01-11T02:59:50;19.25;;;9.10;;
78228;SDS011;74448;49.082;9.152;2024-01-11T03:02:17;18.65;;;9.15;;
78228;SDS011;74448;49.082;9.152;2024-01-11T03:04:44;19.42;;;9.32;;
78228;SDS011;74448;49.082;9.152;2024-01-11T03:07:11;16.98;;;9.55;;
78228;SDS011;74448;49.082;9.152;2024-01-11T03:09:37;19.98;;;10.35;;
78228;SDS011;74448;49.082;9.152;2024-01-11T03:12:04;19.35;;;9.00;;
78228;SDS011;74448;49.082;9.152;2024-01-11T03:14:32;21.10;;;9.70;;
78228;SDS011;74448;49.082;9.152;2024-01-11T03:16:59;17.15;;;9.75;;
78228;SDS011;74448;49.082;9.152;2024-01-11T03:19:26;18.33;;;9.57;;
78228;SDS011;74448;49.082;9.152;2024-01-11T03:21:53;21.38;;;10.93;;
78228;SDS011;74448;49.082;9.152;2024-01-11T03:24:20;19.15;;;9.88;;
78228;SDS011;74448;49.082;9.152;2024-01-11T03:26:47;19.50;;;9.02;;
78228;SDS011;74448;49.082;9.152;2024-01-11T03:29:14;22.05;;;9.30;;
78228;SDS011;74448;49.082;9.152;2024-01-11T03:31:40;18.92;;;9.10;;
78228;SDS011;74448;49.082;9.152;2024-01-11T03:34:08;21.65;;;9.95;;
78228;SDS011;74448;49.082;9.152;2024-01-11T03:36:35;17.58;;;10.30;;
78228;SDS011;74448;49.082;9.152;2024-01-11T03:39:02;19.17;;;9.73;;
78228;SDS011;74448;49.082;9.152;2024-01-11T03:41:28;18.95;;;9.13;;
78228;SDS011;74448;49.082;9.152;2024-01-11T03:43:55;18.58;;;10.63;;
78228;SDS011;74448;49.082;9.152;2024-01-11T03:46:22;15.30;;;8.68;;
78228;SDS011;74448;49.082;9.152;2024-01-11T03:48:48;22.38;;;10.45;;
78228;SDS011;74448;49.082;9.152;2024-01-11T03:51:15;22.85;;;10.30;;
78228;SDS011;74448;49.082;9.152;2024-01-11T03:53:42;18.70;;;9.57;;
78228;SDS011;74448;49.082;9.152;2024-01-11T03:56:09;22.08;;;10.07;;
78228;SDS011;74448;49.082;9.152;2024-01-11T03:58:36;16.75;;;8.88;;
78228;SDS011;74448;49.082;9.152;2024-01-11T04:01:05;15.75;;;8.23;;
78228;SDS011;74448;49.082;9.152;2024-01-11T04:03:34;18.88;;;9.88;;
78228;SDS011;74448;49.082;9.152;2024-01-11T04:06:01;15.00;;;8.60;;
78228;SDS011;74448;49.082;9.152;2024-01-11T04:08:27;20.55;;;9.57;;
78228;SDS011;74448;49.082;9.152;2024-01-11T04:10:54;21.63;;;10.18;;
78228;SDS011;74448;49.082;9.152;2024-01-11T04:13:21;18.25;;;9.35;;
78228;SDS011;74448;49.082;9.152;2024-01-11T04:15:50;16.15;;;9.63;;
78228;SDS011;74448;49.082;9.152;2024-01-11T04:18:17;17.55;;;10.00;;
78228;SDS011;74448;49.082;9.152;2024-01-11T04:20:44;18.05;;;8.70;;
78228;SDS011;74448;49.082;9.152;2024-01-11T04:23:10;18.83;;;9.05;;
78228;SDS011;74448;49.082;9.152;2024-01-11T04:25:37;16.67;;;9.45;;
78228;SDS011;74448;49.082;9.152;2024-01-11T04:28:04;23.15;;;10.57;;
78228;SDS011;74448;49.082;9.152;2024-01-11T04:30:31;22.00;;;9.85;;
78228;SDS011;74448;49.082;9.152;2024-01-11T04:32:58;19.67;;;10.00;;
78228;SDS011;74448;49.082;9.152;2024-01-11T04:37:52;18.48;;;9.43;;
78228;SDS011;74448;49.082;9.152;2024-01-11T04:40:18;19.63;;;10.10;;
78228;SDS011;74448;49.082;9.152;2024-01-11T04:42:45;16.40;;;8.70;;
78228;SDS011;74448;49.082;9.152;2024-01-11T04:45:11;19.30;;;9.55;;
78228;SDS011;74448;49.082;9.152;2024-01-11T04:47:38;20.05;;;9.05;;
78228;SDS011;74448;49.082;9.152;2024-01-11T04:50:05;20.52;;;10.23;;
78228;SDS011;74448;49.082;9.152;2024-01-11T04:52:32;19.63;;;9.52;;
78228;SDS011;74448;49.082;9.152;2024-01-11T04:54:59;19.15;;;9.80;;
78228;SDS011;74448;49.082;9.152;2024-01-11T04:57:25;19.83;;;9.65;;
78228;SDS011;74448;49.082;9.152;2024-01-11T04:59:52;24.17;;;10.57;;
78228;SDS011;74448;49.082;9.152;2024-01-11T05:04:49;18.10;;;9.95;;
78228;SDS011;74448;49.082;9.152;2024-01-11T05:07:15;22.08;;;10.20;;
78228;SDS011;74448;49.082;9.152;2024-01-11T05:09:42;18.65;;;9.13;;
78228;SDS011;74448;49.082;9.152;2024-01-11T05:12:09;19.65;;;9.20;;
78228;SDS011;74448;49.082;9.152;2024-01-11T05:14:35;23.17;;;9.63;;
78228;SDS011;74448;49.082;9.152;2024-01-11T05:17:02;21.67;;;10.60;;
78228;SDS011;74448;49.082;9.152;2024-01-11T05:19:29;16.50;;;9.63;;
78228;SDS011;74448;49.082;9.152;2024-01-11T05:21:55;20.52;;;10.52;;
78228;SDS011;74448;49.082;9.152;2024-01-11T05:24:23;17.20;;;8.30;;
78228;SDS011;74448;49.082;9.152;2024-01-11T05:26:49;18.92;;;9.95;;
78228;SDS011;74448;49.082;9.152;2024-01-11T05:31:43;24.60;;;10.63;;
78228;SDS011;74448;49.082;9.152;2024-01-11T05:34:10;16.33;;;9.10;;
78228;SDS011;74448;49.082;9.152;2024-01-11T05:36:39;21.45;;;9.75;;
78228;SDS011;74448;49.082;9.152;2024-01-11T05:39:06;19.45;;;9.88;;
78228;SDS011;74448;49.082;9.152;2024-01-11T05:41:32;17.75;;;9.85;;
78228;SDS011;74448;49.082;9.152;2024-01-11T05:43:59;19.00;;;9.45;;
78228;SDS011;74448;49.082;9.152;2024-01-11T05:46:26;18.92;;;10.30;;
78228;SDS011;74448;49.082;9.152;2024-01-11T05:48:52;18.83;;;9.98;;
78228;SDS011;74448;49.082;9.152;2024-01-11T05:51:19;17.27;;;8.95;;
78228;SDS011;74448;49.082;9.152;2024-01-11T05:53:46;20.25;;;9.55;;
78228;SDS011;74448;49.082;9.152;2024-01-11T05:56:12;18.90;;;10.65;;
78228;SDS011;74448;49.082;9.152;2024-01-11T05:58:39;17.50;;;9.65;;
78228;SDS011;74448;49.082;9.152;2024-01-11T06:01:06;20.35;;;10.38;;
78228;SDS011;74448;49.082;9.152;2024-01-11T06:03:33;16.60;;;8.82;;
78228;SDS011;74448;49.082;9.152;2024-01-11T06:06:02;19.05;;;9.30;;
78228;SDS011;74448;49.082;9.152;2024-01-11T06:08:30;17.08;;;10.05;;
78228;SDS011;74448;49.082;9.152;2024-01-11T06:10:57;21.67;;;10.93;;
78228;SDS011;74448;49.082;9.152;2024-01-11T06:13:24;20.00;;;9.82;;
78228;SDS011;74448;49.082;9.152;2024-01-11T06:15:51;19.05;;;10.85;;
78228;SDS011;74448;49.082;9.152;2024-01-11T06:18:18;18.27;;;9.27;;
78228;SDS011;74448;49.082;9.152;2024-01-11T06:20:44;21.08;;;9.70;;
78228;SDS011;74448;49.082;9.152;2024-01-11T06:23:11;20.25;;;9.30;;
78228;SDS011;74448;49.082;9.152;2024-01-11T06:25:38;19.80;;;10.23;;
78228;SDS011;74448;49.082;9.152;2024-01-11T06:28:05;21.25;;;9.77;;
78228;SDS011;74448;49.082;9.152;2024-01-11T06:30:33;18.33;;;9.15;;
78228;SDS011;74448;49.082;9.152;2024-01-11T06:32:59;19.92;;;9.30;;
78228;SDS011;74448;49.082;9.152;2024-01-11T06:35:26;18.58;;;9.63;;
78228;SDS011;74448;49.082;9.152;2024-01-11T06:37:53;20.02;;;10.38;;
78228;SDS011;74448;49.082;9.152;2024-01-11T06:40:19;18.10;;;9.73;;
78228;SDS011;74448;49.082;9.152;2024-01-11T06:42:46;16.70;;;9.02;;
78228;SDS011;74448;49.082;9.152;2024-01-11T06:45:12;20.85;;;10.50;;
78228;SDS011;74448;49.082;9.152;2024-01-11T06:47:39;22.00;;;10.10;;
78228;SDS011;74448;49.082;9.152;2024-01-11T06:50:06;20.30;;;10.52;;
78228;SDS011;74448;49.082;9.152;2024-01-11T06:52:34;17.85;;;10.02;;
78228;SDS011;74448;49.082;9.152;2024-01-11T06:55:01;20.40;;;9.05;;
78228;SDS011;74448;49.082;9.152;2024-01-11T06:57:28;15.05;;;9.05;;
78228;SDS011;74448;49.082;9.152;2024-01-11T06:59:55;18.60;;;9.95;;
78228;SDS011;74448;49.082;9.152;2024-01-11T07:02:22;18.17;;;9.90;;
78228;SDS011;74448;49.082;9.152;2024-01-11T07:04:48;21.23;;;10.88;;
78228;SDS011;74448;49.082;9.152;2024-01-11T07:07:15;18.95;;;10.23;;
78228;SDS011;74448;49.082;9.152;2024-01-11T07:09:41;19.10;;;9.18;;
78228;SDS011;74448;49.082;9.152;2024-01-11T07:12:08;19.80;;;9.23;;
78228;SDS011;74448;49.082;9.152;2024-01-11T07:14:35;19.13;;;9.55;;
78228;SDS011;74448;49.082;9.152;2024-01-11T07:19:30;21.17;;;9.52;;
78228;SDS011;74448;49.082;9.152;2024-01-11T07:21:57;17.27;;;9.38;;
78228;SDS011;74448;49.082;9.152;2024-01-11T07:24:23;20.52;;;9.45;;
78228;SDS011;74448;49.082;9.152;2024-01-11T07:26:50;17.23;;;10.13;;
78228;SDS011;74448;49.082;9.152;2024-01-11T07:29:16;18.10;;;9.90;;
78228;SDS011;74448;49.082;9.152;2024-01-11T07:31:43;19.10;;;8.90;;
78228;SDS011;74448;49.082;9.152;2024-01-11T07:34:10;18.48;;;9.93;;
78228;SDS011;74448;49.082;9.152;2024-01-11T07:36:37;17.50;;;9.10;;
78228;SDS011;74448;49.082;9.152;2024-01-11T07:39:04;21.30;;;9.82;;
78228;SDS011;74448;49.082;9.152;2024-01-11T07:41:30;19.83;;;10.27;;
78228;SDS011;74448;49.082;9.152;2024-01-11T07:43:57;19.05;;;9.40;;
78228;SDS011;74448;49.082;9.152;2024-01-11T07:46:25;21.52;;;10.27;;
78228;SDS011;74448;49.082;9.152;2024-01-11T07:49:04;19.90;;;10.70;;
78228;SDS011;74448;49.082;9.152;2024-01-11T07:51:32;18.65;;;9.82;;
78228;SDS011;74448;49.082;9.152;2024-01-11T07:54:00;19.90;;;10.35;;
78228;SDS011;74448;49.082;9.152;2024-01-11T07:56:27;20.00;;;9.48;;
78228;SDS011;74448;49.082;9.152;2024-01-11T07:58:54;19.58;;;9.20;;
78228;SDS011;74448;49.082;9.152;2024-01-11T08:01:20;23.13;;;10.55;;
78228;SDS011;74448;49.082;9.152;2024-01-11T08:03:47;19.48;;;10.13;;
78228;SDS011;74448;49.082;9.152;2024-01-11T08:06:14;19.60;;;9.13;;
78228;SDS011;74448;49.082;9.152;2024-01-11T08:08:41;17.33;;;10.25;;
78228;SDS011;74448;49.082;9.152;2024-01-11T08:11:09;19.77;;;9.98;;
78228;SDS011;74448;49.082;9.152;2024-01-11T08:13:37;16.10;;;9.82;;
78228;SDS011;74448;49.082;9.152;2024-01-11T08:16:04;18.80;;;10.13;;
78228;SDS011;74448;49.082;9.152;2024-01-11T08:18:33;20.60;;;10.00;;
78228;SDS011;74448;49.082;9.152;2024-01-11T08:21:00;18.13;;;9.27;;
78228;SDS011;74448;49.082;9.152;2024-01-11T08:23:27;23.20;;;10.18;;
78228;SDS011;74448;49.082;9.152;2024-01-11T08:25:53;24.05;;;10.50;;
78228;SDS011;74448;49.082;9.152;2024-01-11T08:28:20;20.60;;;10.80;;
78228;SDS011;74448;49.082;9.152;2024-01-11T08:30:47;18.38;;;10.30;;
78228;SDS011;74448;49.082;9.152;2024-01-11T08:33:14;18.85;;;10.23;;
78228;SDS011;74448;49.082;9.152;2024-01-11T08:35:41;21.75;;;10.57;;
78228;SDS011;74448;49.082;9.152;2024-01-11T08:38:08;17.55;;;10.32;;
78228;SDS011;74448;49.082;9.152;2024-01-11T08:40:35;17.88;;;10.57;;
78228;SDS011;74448;49.082;9.152;2024-01-11T08:43:02;18.23;;;9.23;;
78228;SDS011;74448;49.082;9.152;2024-01-11T08:45:30;20.38;;;8.93;;
78228;SDS011;74448;49.082;9.152;2024-01-11T08:47:57;22.90;;;11.23;;
78228;SDS011;74448;49.082;9.152;2024-01-11T08:52:54;24.63;;;10.43;;
78228;SDS011;74448;49.082;9.152;2024-01-11T08:55:22;22.30;;;11.15;;
78228;SDS011;74448;49.082;9.152;2024-01-11T08:57:49;21.00;;;11.40;;
78228;SDS011;74448;49.082;9.152;2024-01-11T09:00:16;18.33;;;9.00;;
78228;SDS011;74448;49.082;9.152;2024-01-11T09:02:46;19.25;;;10.02;;
78228;SDS011;74448;49.082;9.152;2024-01-11T09:07:42;19.58;;;9.40;;
78228;SDS011;74448;49.082;9.152;2024-01-11T09:10:09;18.50;;;10.27;;
78228;SDS011;74448;49.082;9.152;2024-01-11T09:12:37;22.25;;;11.50;;
78228;SDS011;74448;49.082;9.152;2024-01-11T09:15:04;20.27;;;9.73;;
78228;SDS011;74448;49.082;9.152;2024-01-11T09:17:31;23.10;;;10.60;;
78228;SDS011;74448;49.082;9.152;2024-01-11T09:19:59;17.20;;;9.98;;
78228;SDS011;74448;49.082;9.152;2024-01-11T09:22:26;23.98;;;10.40;;
78228;SDS011;74448;49.082;9.152;2024-01-11T09:24:52;25.40;;;12.05;;
78228;SDS011;74448;49.082;9.152;2024-01-11T09:27:19;19.75;;;9.15;;
78228;SDS011;74448;49.082;9.152;2024-01-11T09:29:46;18.77;;;9.85;;
78228;SDS011;74448;49.082;9.152;2024-01-11T09:32:12;18.10;;;9.48;;
78228;SDS011;74448;49.082;9.152;2024-01-11T09:34:40;23.17;;;10.25;;
78228;SDS011;74448;49.082;9.152;2024-01-11T09:37:06;19.48;;;9.90;;
78228;SDS011;74448;49.082;9.152;2024-01-11T09:39:33;21.88;;;9.73;;
78228;SDS011;74448;49.082;9.152;2024-01-11T09:42:07;19.58;;;9.77;;
78228;SDS011;74448;49.082;9.152;2024-01-11T09:44:37;22.98;;;11.50;;
78228;SDS011;74448;49.082;9.152;2024-01-11T09:47:09;19.10;;;9.70;;
78228;SDS011;74448;49.082;9.152;2024-01-11T09:49:42;19.63;;;10.23;;
78228;SDS011;74448;49.082;9.152;2024-01-11T09:52:11;21.08;;;10.55;;
78228;SDS011;74448;49.082;9.152;2024-01-11T09:54:41;22.58;;;10.95;;
78228;SDS011;74448;49.082;9.152;2024-01-11T09:57:07;20.52;;;9.43;;
78228;SDS011;74448;49.082;9.152;2024-01-11T09:59:36;19.13;;;10.40;;
78228;SDS011;74448;49.082;9.152;2024-01-11T10:02:03;19.23;;;10.60;;
78228;SDS011;74448;49.082;9.152;2024-01-11T10:04:35;21.08;;;9.75;;
78228;SDS011;74448;49.082;9.152;2024-01-11T10:07:02;21.25;;;10.20;;
78228;SDS011;74448;49.082;9.152;2024-01-11T10:09:31;18.88;;;9.27;;
78228;SDS011;74448;49.082;9.152;2024-01-11T10:11:57;18.90;;;9.77;;
78228;SDS011;74448;49.082;9.152;2024-01-11T10:16:53;21.88;;;10.57;;
78228;SDS011;74448;49.082;9.152;2024-01-11T10:19:20;19.55;;;11.05;;
78228;SDS011;74448;49.082;9.152;2024-01-11T10:21:48;18.10;;;9.70;;
78228;SDS011;74448;49.082;9.152;2024-01-11T10:26:46;19.33;;;10.25;;
78228;SDS011;74448;49.082;9.152;2024-01-11T10:29:13;18.98;;;10.00;;
78228;SDS011;74448;49.082;9.152;2024-01-11T10:31:40;21.42;;;10.68;;
78228;SDS011;74448;49.082;9.152;2024-01-11T10:34:06;24.85;;;9.98;;
78228;SDS011;74448;49.082;9.152;2024-01-11T10:36:33;22.52;;;10.43;;
78228;SDS011;74448;49.082;9.152;2024-01-11T10:39:01;20.85;;;11.10;;
78228;SDS011;74448;49.082;9.152;2024-01-11T10:41:32;19.17;;;10.43;;
78228;SDS011;74448;49.082;9.152;2024-01-11T10:44:19;21.10;;;10.88;;
78228;SDS011;74448;49.082;9.152;2024-01-11T10:46:49;20.58;;;11.10;;
78228;SDS011;74448;49.082;9.152;2024-01-11T10:49:18;17.90;;;10.45;;
78228;SDS011;74448;49.082;9.152;2024-01-11T10:51:48;18.55;;;9.75;;
78228;SDS011;74448;49.082;9.152;2024-01-11T10:54:19;21.10;;;10.43;;
78228;SDS011;74448;49.082;9.152;2024-01-11T10:56:48;21.33;;;9.23;;
78228;SDS011;74448;49.082;9.152;2024-01-11T10:59:15;20.80;;;9.30;;
78228;SDS011;74448;49.082;9.152;2024-01-11T11:01:44;21.20;;;11.77;;
78228;SDS011;74448;49.082;9.152;2024-01-11T11:04:12;20.85;;;10.05;;
78228;SDS011;74448;49.082;9.152;2024-01-11T11:06:41;19.75;;;10.68;;
78228;SDS011;74448;49.082;9.152;2024-01-11T11:09:09;18.00;;;9.70;;
78228;SDS011;74448;49.082;9.152;2024-01-11T11:11:38;21.40;;;10.45;;
78228;SDS011;74448;49.082;9.152;2024-01-11T11:14:06;20.70;;;10.93;;
78228;SDS011;74448;49.082;9.152;2024-01-11T11:16:33;19.02;;;11.13;;
78228;SDS011;74448;49.082;9.152;2024-01-11T11:19:00;21.70;;;10.45;;
78228;SDS011;74448;49.082;9.152;2024-01-11T11:21:27;18.20;;;10.32;;
78228;SDS011;74448;49.082;9.152;2024-01-11T11:23:54;24.30;;;10.73;;
78228;SDS011;74448;49.082;9.152;2024-01-11T11:26:23;19.70;;;10.57;;
78228;SDS011;74448;49.082;9.152;2024-01-11T11:28:52;18.88;;;9.77;;
78228;SDS011;74448;49.082;9.152;2024-01-11T11:31:35;19.95;;;10.90;;
78228;SDS011;74448;49.082;9.152;2024-01-11T11:34:06;18.95;;;10.02;;
78228;SDS011;74448;49.082;9.152;2024-01-11T11:36:33;25.20;;;11.52;;
78228;SDS011;74448;49.082;9.152;2024-01-11T11:39:01;19.75;;;11.00;;
78228;SDS011;74448;49.082;9.152;2024-01-11T11:41:31;21.38;;;10.57;;
78228;SDS011;74448;49.082;9.152;2024-01-11T11:44:01;20.52;;;9.65;;
78228;SDS011;74448;49.082;9.152;2024-01-11T11:46:29;18.88;;;10.65;;
78228;SDS011;74448;49.082;9.152;2024-01-11T11:48:57;21.48;;;9.70;;
78228;SDS011;74448;49.082;9.152;2024-01-11T11:51:24;17.08;;;9.82;;
78228;SDS011;74448;49.082;9.152;2024-01-11T11:53:54;20.58;;;10.27;;
78228;SDS011;74448;49.082;9.152;2024-01-11T11:56:22;24.60;;;11.40;;
78228;SDS011;74448;49.082;9.152;2024-01-11T11:58:49;22.17;;;10.30;;
78228;SDS011;74448;49.082;9.152;2024-01-11T12:01:18;20.90;;;10.57;;
78228;SDS011;74448;49.082;9.152;2024-01-11T12:03:45;19.55;;;9.77;;
78228;SDS011;74448;49.082;9.152;2024-01-11T12:06:16;16.75;;;9.55;;
78228;SDS011;74448;49.082;9.152;2024-01-11T12:08:46;19.23;;;10.25;;
78228;SDS011;74448;49.082;9.152;2024-01-11T12:11:17;19.48;;;9.38;;
78228;SDS011;74448;49.082;9.152;2024-01-11T12:13:48;21.75;;;10.30;;
78228;SDS011;74448;49.082;9.152;2024-01-11T12:16:15;19.33;;;9.60;;
78228;SDS011;74448;49.082;9.152;2024-01-11T12:18:42;21.65;;;10.00;;
78228;SDS011;74448;49.082;9.152;2024-01-11T12:21:08;21.98;;;10.38;;
78228;SDS011;74448;49.082;9.152;2024-01-11T12:23:36;23.05;;;10.73;;
78228;SDS011;74448;49.082;9.152;2024-01-11T12:26:07;18.02;;;9.63;;
78228;SDS011;74448;49.082;9.152;2024-01-11T12:28:40;16.40;;;9.50;;
78228;SDS011;74448;49.082;9.152;2024-01-11T12:31:08;21.33;;;10.77;;
78228;SDS011;74448;49.082;9.152;2024-01-11T12:33:35;16.92;;;9.10;;
78228;SDS011;74448;49.082;9.152;2024-01-11T12:36:06;24.50;;;10.30;;
78228;SDS011;74448;49.082;9.152;2024-01-11T12:38:34;23.75;;;11.52;;
78228;SDS011;74448;49.082;9.152;2024-01-11T12:41:02;19.42;;;9.50;;
78228;SDS011;74448;49.082;9.152;2024-01-11T12:43:30;16.33;;;10.02;;
78228;SDS011;74448;49.082;9.152;2024-01-11T12:45:56;18.88;;;9.73;;
78228;SDS011;74448;49.082;9.152;2024-01-11T12:48:23;17.13;;;9.88;;
78228;SDS011;74448;49.082;9.152;2024-01-11T12:53:35;23.98;;;10.38;;
78228;SDS011;74448;49.082;9.152;2024-01-11T12:56:03;21.15;;;9.60;;
78228;SDS011;74448;49.082;9.152;2024-01-11T12:58:37;18.65;;;10.70;;
78228;SDS011;74448;49.082;9.152;2024-01-11T13:01:04;16.75;;;9.30;;
78228;SDS011;74448;49.082;9.152;2024-01-11T13:03:37;18.45;;;9.85;;
78228;SDS011;74448;49.082;9.152;2024-01-11T13:06:05;19.20;;;9.68;;
78228;SDS011;74448;49.082;9.152;2024-01-11T13:08:32;19.48;;;9.85;;
78228;SDS011;74448;49.082;9.152;2024-01-11T13:11:02;18.13;;;10.18;;
78228;SDS011;74448;49.082;9.152;2024-01-11T13:13:33;17.27;;;10.32;;
78228;SDS011;74448;49.082;9.152;2024-01-11T13:16:04;17.08;;;9.15;;
78228;SDS011;74448;49.082;9.152;2024-01-11T13:18:37;19.27;;;10.00;;
78228;SDS011;74448;49.082;9.152;2024-01-11T13:21:04;19.05;;;10.15;;
78228;SDS011;74448;49.082;9.152;2024-01-11T13:23:33;20.65;;;10.07;;
78228;SDS011;74448;49.082;9.152;2024-01-11T13:26:00;18.98;;;10.88;;
78228;SDS011;74448;49.082;9.152;2024-01-11T13:28:26;19.48;;;10.25;;
78228;SDS011;74448;49.082;9.152;2024-01-11T13:30:53;17.50;;;9.23;;
78228;SDS011;74448;49.082;9.152;2024-01-11T13:33:20;19.40;;;10.10;;
78228;SDS011;74448;49.082;9.152;2024-01-11T13:35:49;21.58;;;10.25;;
78228;SDS011;74448;49.082;9.152;2024-01-11T13:38:16;16.45;;;9.38;;
78228;SDS011;74448;49.082;9.152;2024-01-11T13:40:42;16.58;;;8.85;;
78228;SDS011;74448;49.082;9.152;2024-01-11T13:43:09;20.40;;;10.38;;
78228;SDS011;74448;49.082;9.152;2024-01-11T13:45:36;18.15;;;9.32;;
78228;SDS011;74448;49.082;9.152;2024-01-11T13:50:30;19.48;;;8.70;;
78228;SDS011;74448;49.082;9.152;2024-01-11T13:52:59;21.45;;;11.15;;
78228;SDS011;74448;49.082;9.152;2024-01-11T13:55:26;18.42;;;9.88;;
78228;SDS011;74448;49.082;9.152;2024-01-11T13:57:54;18.20;;;9.38;;
78228;SDS011;74448;49.082;9.152;2024-01-11T14:00:21;17.70;;;9.73;;
78228;SDS011;74448;49.082;9.152;2024-01-11T14:02:47;19.58;;;10.27;;
78228;SDS011;74448;49.082;9.152;2024-01-11T14:05:15;17.40;;;9.38;;
78228;SDS011;74448;49.082;9.152;2024-01-11T14:07:44;21.45;;;10.50;;
78228;SDS011;74448;49.082;9.152;2024-01-11T14:10:12;18.80;;;9.95;;
78228;SDS011;74448;49.082;9.152;2024-01-11T14:12:40;15.95;;;10.02;;
78228;SDS011;74448;49.082;9.152;2024-01-11T14:15:08;18.38;;;9.20;;
78228;SDS011;74448;49.082;9.152;2024-01-11T14:17:39;17.98;;;9.40;;
78228;SDS011;74448;49.082;9.152;2024-01-11T14:20:07;19.67;;;9.77;;
78228;SDS011;74448;49.082;9.152;2024-01-11T14:22:40;16.50;;;9.90;;
78228;SDS011;74448;49.082;9.152;2024-01-11T14:25:08;17.77;;;10.15;;
78228;SDS011;74448;49.082;9.152;2024-01-11T14:27:38;19.02;;;9.65;;
78228;SDS011;74448;49.082;9.152;2024-01-11T14:30:05;20.92;;;9.82;;
78228;SDS011;74448;49.082;9.152;2024-01-11T14:32:33;14.90;;;8.68;;
78228;SDS011;74448;49.082;9.152;2024-01-11T14:35:03;23.02;;;11.88;;
78228;SDS011;74448;49.082;9.152;2024-01-11T14:37:34;22.85;;;10.75;;
78228;SDS011;74448;49.082;9.152;2024-01-11T14:40:03;18.38;;;9.82;;
78228;SDS011;74448;49.082;9.152;2024-01-11T14:42:30;37.53;;;11.60;;
78228;SDS011;74448;49.082;9.152;2024-01-11T14:44:57;36.47;;;11.02;;
78228;SDS011;74448;49.082;9.152;2024-01-11T14:47:23;48.60;;;13.85;;
78228;SDS011;74448;49.082;9.152;2024-01-11T14:52:17;32.55;;;10.18;;
78228;SDS011;74448;49.082;9.152;2024-01-11T14:54:45;37.92;;;9.77;;
78228;SDS011;74448;49.082;9.152;2024-01-11T14:57:14;42.13;;;11.38;;
78228;SDS011;74448;49.082;9.152;2024-01-11T14:59:41;31.67;;;12.48;;
78228;SDS011;74448;49.082;9.152;2024-01-11T15:02:08;42.40;;;13.82;;
78228;SDS011;74448;49.082;9.152;2024-01-11T15:04:36;33.60;;;11.82;;
78228;SDS011;74448;49.082;9.152;2024-01-11T15:07:02;42.45;;;11.93;;